Nearby METAR Reports

 

KTCM - Tacoma,Washington,
Updated: 04/20/2019 2:58pm
Overcast
Overcast
 Wind from calm
Wind: Calm
Temperature: 55°F , 13°C
Dew Point: 48°F , 9°C
Humidity: 77%
Barometer: 30.07 inHg , 1018.3 hPa
Clouds: Overcast
Visibility: 10 miles , 16 km
Cloud details: Overcast 3100 ft
2019/04/20 21:58 KTCM 202158Z AUTO 00000KT 10SM OVC031 13/09 A3007 RMK AO2 SLP187 T01330092 RVRNO CHINO RWY34 $
KSEA - Seattle,Washington,
Updated: 04/20/2019 3:53pm
Partly cloudy
Partly cloudy
 Wind from varies
Wind: varies 5 mph , 7 km/h
Temperature: 57°F , 14°C
Dew Point: 45°F , 7°C
Humidity: 63%
Barometer: 30.07 inHg , 1018.3 hPa
Clouds: Partly cloudy
Visibility: 10 miles , 16 km
Cloud details: Partly cloudy 2900 ft
2019/04/20 22:53 KSEA 202253Z VRB04KT 10SM SCT029 14/07 A3007 RMK AO2 SLP187 T01440072
 
KOLM - Olympia,Washington,
Updated: 04/20/2019 3:54pm
Clear
Clear
 Wind from varies
Wind: varies 6 mph , 9 km/h
Temperature: 59°F , 15°C
Dew Point: 43°F , 6°C
Humidity: 55%
Barometer: 30.06 inHg , 1017.9 hPa
Clouds: Clear
Visibility: 10 miles , 16 km
2019/04/20 22:54 KOLM 202254Z VRB05KT 10SM CLR 15/06 A3006 RMK AO2 SLP179 T01500061
KHQM - Hoquiam,Washington,
Updated: 04/20/2019 3:53pm
Clear
Clear
 Wind from W
Wind: W 14 mph , 22 km/h
Temperature: 55°F , 13°C
Dew Point: 48°F , 9°C
Humidity: 77%
Barometer: 30.08 inHg , 1018.6 hPa
Clouds: Clear
Visibility: 8 miles , 13 km
2019/04/20 22:53 KHQM 202253Z AUTO 28012KT 8SM CLR 13/09 A3008 RMK AO2 SLP190 T01280089
 
KGEG - Spokane,Washington,
Updated: 04/20/2019 3:53pm
Mostly cloudy
Mostly cloudy
 Wind from calm
Wind: Calm
Temperature: 59°F , 15°C
Dew Point: 34°F , 1°C
Humidity: 39%
Barometer: 29.85 inHg , 1010.8 hPa
Clouds: Mostly cloudy
Visibility: 10 miles , 16 km
Cloud details: Partly cloudy 6000 ft
Partly cloudy 9000 ft
Mostly cloudy 15000 ft
Mostly cloudy 20000 ft
2019/04/20 22:53 KGEG 202253Z 00000KT 10SM SCT060 SCT090 BKN150 BKN200 15/01 A2985 RMK AO2 SLP105 T01500011
KBLI - Bellingham,Washington,
Updated: 04/20/2019 3:53pm
Clear
Clear
 Wind from WNW
Wind: WNW 12 mph , 19 km/h, Gust: 18 mph , 30 km/h
Temperature: 59°F , 15°C
Dew Point: 43°F , 6°C
Humidity: 55%
Barometer: 30.04 inHg , 1017.3 hPa
Clouds: Clear
Visibility: 10 miles , 16 km
2019/04/20 22:53 KBLI 202253Z 29010G16KT 10SM CLR 15/06 A3004 RMK AO2 SLP179 T01500056